createdAt,value
2023-01-26T00:01:16.238Z,101704.66
2023-01-26T00:03:43.441Z,101705.44
2023-01-26T00:06:13.411Z,101699.25
2023-01-26T00:08:42.771Z,101682.34
2023-01-26T00:11:11.499Z,101683.22
2023-01-26T00:13:38.286Z,101665.25
2023-01-26T00:16:08.397Z,101668.06
2023-01-26T00:18:38.124Z,101661.91
2023-01-26T00:21:06.061Z,101662.88
2023-01-26T00:23:34.410Z,101657.28
2023-01-26T00:26:01.974Z,101651.91
2023-01-26T00:28:29.609Z,101638.56
2023-01-26T00:31:04.412Z,101631.50
2023-01-26T00:33:31.235Z,101636.94
2023-01-26T00:35:58.940Z,101633.31
2023-01-26T00:38:25.676Z,101654.56
2023-01-26T00:40:52.455Z,101644.63
2023-01-26T00:43:19.104Z,101651.03
2023-01-26T00:45:45.843Z,101645.66
2023-01-26T00:48:12.543Z,101645.69
2023-01-26T00:50:39.223Z,101652.81
2023-01-26T00:53:06.347Z,101656.38
2023-01-26T00:55:33.356Z,101642.97
2023-01-26T00:58:05.501Z,101646.66
2023-01-26T01:00:33.953Z,101642.22
2023-01-26T01:03:00.946Z,101636.69
2023-01-26T01:05:30.367Z,101628.78
2023-01-26T01:07:57.379Z,101635.94
2023-01-26T01:10:24.927Z,101634.91
2023-01-26T01:12:51.637Z,101632.34
2023-01-26T01:15:18.392Z,101609.94
2023-01-26T01:17:45.094Z,101614.34
2023-01-26T01:20:12.454Z,101613.41
2023-01-26T01:22:39.397Z,101610.63
2023-01-26T01:25:06.231Z,101607.25
2023-01-26T01:27:33.016Z,101603.69
2023-01-26T01:29:59.705Z,101600.84
2023-01-26T01:32:26.394Z,101603.63
2023-01-26T01:34:53.102Z,101601.91
2023-01-26T01:37:19.777Z,101585.66
2023-01-26T01:39:46.462Z,101579.31
2023-01-26T01:42:13.129Z,101578.63
2023-01-26T01:44:39.907Z,101584.81
2023-01-26T01:47:12.165Z,101570.56
2023-01-26T01:49:44.131Z,101567.81
2023-01-26T01:52:29.867Z,101565.88
2023-01-26T01:55:06.188Z,101570.38
2023-01-26T01:57:47.043Z,101566.97
2023-01-26T02:00:16.209Z,101565.16
2023-01-26T02:03:10.994Z,101560.00
2023-01-26T02:05:51.253Z,101566.13
2023-01-26T02:08:21.436Z,101551.75
2023-01-26T02:10:53.370Z,101549.13
2023-01-26T02:13:20.779Z,101542.00
2023-01-26T02:15:48.265Z,101549.97
2023-01-26T02:18:16.356Z,101542.81
2023-01-26T02:20:59.166Z,101539.28
2023-01-26T02:23:34.734Z,101540.09
2023-01-26T02:26:20.234Z,101541.00
2023-01-26T02:28:47.773Z,101530.31
2023-01-26T02:31:15.740Z,101531.28
2023-01-26T02:33:42.851Z,101532.25
2023-01-26T02:36:18.656Z,101532.19
2023-01-26T02:38:51.556Z,101531.28
2023-01-26T02:41:39.071Z,101533.97
2023-01-26T02:44:10.061Z,101527.66
2023-01-26T02:46:36.886Z,101528.63
2023-01-26T02:49:22.662Z,101519.56
2023-01-26T02:51:49.489Z,101505.25
2023-01-26T02:54:36.036Z,101508.84
2023-01-26T02:57:02.856Z,101490.13
2023-01-26T02:59:29.534Z,101484.78
2023-01-26T03:01:58.238Z,101485.69
2023-01-26T03:04:25.044Z,101475.91
2023-01-26T03:06:51.940Z,101477.75
2023-01-26T03:09:18.657Z,101468.63
2023-01-26T03:11:45.265Z,101470.53
2023-01-26T03:14:14.078Z,101469.59
2023-01-26T03:16:41.481Z,101462.44
2023-01-26T03:19:30.081Z,101456.31
2023-01-26T03:22:15.313Z,101459.78
2023-01-26T03:25:00.442Z,101454.22
2023-01-26T03:27:27.794Z,101449.88
2023-01-26T03:29:57.943Z,101451.69
2023-01-26T03:32:25.025Z,101448.03
2023-01-26T03:34:52.182Z,101442.69
2023-01-26T03:37:22.771Z,101441.06
2023-01-26T03:40:09.852Z,101442.69
2023-01-26T03:42:55.686Z,101440.94
2023-01-26T03:45:41.464Z,101443.63
2023-01-26T03:48:30.651Z,101438.28
2023-01-26T03:51:16.318Z,101438.91
2023-01-26T03:54:02.000Z,101428.44
2023-01-26T03:56:32.511Z,101432.06
2023-01-26T03:59:12.311Z,101425.88
2023-01-26T04:02:05.784Z,101431.94
2023-01-26T04:04:51.095Z,101429.22
2023-01-26T04:07:37.867Z,101431.94
2023-01-26T04:10:04.808Z,101424.63
2023-01-26T04:12:31.420Z,101421.06
2023-01-26T04:15:16.525Z,101409.44
2023-01-26T04:18:01.647Z,101406.56
2023-01-26T04:20:46.823Z,101404.09
2023-01-26T04:23:20.061Z,101404.09
2023-01-26T04:25:48.055Z,101405.88
2023-01-26T04:28:14.720Z,101409.66
2023-01-26T04:30:41.375Z,101414.03
2023-01-26T04:33:08.034Z,101406.75
2023-01-26T04:35:34.710Z,101411.28
2023-01-26T04:38:01.366Z,101414.91
2023-01-26T04:40:28.048Z,101412.13
2023-01-26T04:42:54.638Z,101403.19
2023-01-26T04:45:21.391Z,101399.75
2023-01-26T04:47:48.174Z,101403.25
2023-01-26T04:50:15.032Z,101398.81
2023-01-26T04:52:41.692Z,101393.53
2023-01-26T04:55:08.767Z,101394.41
2023-01-26T04:57:35.441Z,101393.47
2023-01-26T05:00:02.097Z,101382.72
2023-01-26T05:02:28.940Z,101380.91
2023-01-26T05:04:55.598Z,101379.16
2023-01-26T05:07:22.247Z,101375.63
2023-01-26T05:09:48.878Z,101380.91
2023-01-26T05:12:33.637Z,101375.56
2023-01-26T05:15:00.322Z,101372.69
2023-01-26T05:17:26.970Z,101371.94
2023-01-26T05:19:53.620Z,101365.72
2023-01-26T05:22:20.267Z,101364.69
2023-01-26T05:24:46.949Z,101374.63
2023-01-26T05:27:22.617Z,101371.94
2023-01-26T05:29:50.895Z,101370.19
2023-01-26T05:32:18.145Z,101365.72
2023-01-26T05:34:45.357Z,101371.84
2023-01-26T05:37:14.557Z,101362.94
2023-01-26T05:39:42.333Z,101368.28
2023-01-26T05:42:09.399Z,101365.59
2023-01-26T05:44:36.082Z,101359.38
2023-01-26T05:47:02.846Z,101365.53
2023-01-26T05:49:29.595Z,101369.13
2023-01-26T05:51:56.593Z,101370.81
2023-01-26T05:54:23.353Z,101369.00
2023-01-26T05:56:50.340Z,101360.19
2023-01-26T05:59:16.978Z,101363.78
2023-01-26T06:01:43.619Z,101361.97
2023-01-26T06:04:10.489Z,101360.19
2023-01-26T06:06:37.225Z,101366.44
2023-01-26T06:09:03.973Z,101355.47
2023-01-26T06:11:32.238Z,101353.88
2023-01-26T06:13:58.912Z,101361.97
2023-01-26T06:16:25.619Z,101355.84
2023-01-26T06:18:52.332Z,101363.63
2023-01-26T06:21:19.174Z,101365.38
2023-01-26T06:23:45.862Z,101363.56
2023-01-26T06:26:12.509Z,101377.06
2023-01-26T06:28:39.235Z,101365.53
2023-01-26T06:31:08.238Z,101368.13
2023-01-26T06:33:37.188Z,101359.22
2023-01-26T06:36:12.726Z,101361.88
2023-01-26T06:38:44.632Z,101352.94
2023-01-26T06:41:11.478Z,101362.69
2023-01-26T06:43:38.243Z,101368.91
2023-01-26T06:46:06.024Z,101350.19
2023-01-26T06:48:35.120Z,101361.63
2023-01-26T06:51:20.228Z,101367.06
2023-01-26T06:53:54.872Z,101373.25
2023-01-26T06:56:22.897Z,101367.91
2023-01-26T06:58:50.355Z,101365.31
2023-01-26T07:01:22.239Z,101361.66
2023-01-26T07:03:50.228Z,101366.09
2023-01-26T07:06:16.959Z,101358.13
2023-01-26T07:08:43.632Z,101363.50
2023-01-26T07:11:11.418Z,101362.50
2023-01-26T07:13:39.046Z,101368.75
2023-01-26T07:16:08.713Z,101367.00
2023-01-26T07:18:35.423Z,101366.91
2023-01-26T07:21:03.427Z,101366.84
2023-01-26T07:23:30.356Z,101359.75
2023-01-26T07:25:57.325Z,101357.16
2023-01-26T07:28:25.858Z,101356.16
2023-01-26T07:30:53.743Z,101363.25
2023-01-26T07:33:20.396Z,101361.56
2023-01-26T07:35:47.027Z,101360.72
2023-01-26T07:38:13.654Z,101374.81
2023-01-26T07:40:40.350Z,101373.09
2023-01-26T07:43:06.986Z,101377.44
2023-01-26T07:45:34.457Z,101376.63
2023-01-26T07:48:01.069Z,101364.84
2023-01-26T07:50:27.763Z,101372.03
2023-01-26T07:52:54.385Z,101372.94
2023-01-26T07:55:21.582Z,101360.22
2023-01-26T07:57:49.071Z,101272.09
2023-01-26T08:00:17.349Z,101268.59
2023-01-26T08:02:44.392Z,101256.81
2023-01-26T08:05:11.080Z,101255.00
2023-01-26T08:07:37.850Z,101265.56
2023-01-26T08:10:04.878Z,101271.94
2023-01-26T08:12:31.800Z,101261.00
2023-01-26T08:14:58.479Z,101254.69
2023-01-26T08:17:25.147Z,101257.69
2023-01-26T08:19:51.862Z,101250.94
2023-01-26T08:22:18.490Z,101260.88
2023-01-26T08:24:45.238Z,101260.81
2023-01-26T08:27:11.883Z,101258.91
2023-01-26T08:29:38.637Z,101248.09
2023-01-26T08:32:05.597Z,101246.94
2023-01-26T08:34:32.392Z,101248.59
2023-01-26T08:36:59.059Z,101248.75
2023-01-26T08:39:25.888Z,101240.66
2023-01-26T08:41:52.583Z,101257.03
2023-01-26T08:44:19.278Z,101260.56
2023-01-26T08:46:45.919Z,101266.81
2023-01-26T08:49:12.687Z,101270.25
2023-01-26T08:51:39.759Z,101265.06
2023-01-26T08:54:08.283Z,101264.97
2023-01-26T08:56:35.236Z,101256.84
2023-01-26T08:59:02.154Z,101262.31
2023-01-26T09:01:28.894Z,101265.75
2023-01-26T09:03:56.368Z,101250.31
2023-01-26T09:06:23.039Z,101263.91
2023-01-26T09:08:49.795Z,101259.28
2023-01-26T09:11:16.450Z,101271.91
2023-01-26T09:13:43.483Z,101267.19
2023-01-26T09:16:19.616Z,101255.50
2023-01-26T09:18:50.109Z,101259.75
2023-01-26T09:21:17.058Z,101250.25
2023-01-26T09:23:43.783Z,101245.69
2023-01-26T09:26:10.506Z,101248.84
2023-01-26T09:28:37.197Z,101239.41
2023-01-26T09:31:10.779Z,101236.19
2023-01-26T09:33:37.724Z,101244.50
2023-01-26T09:36:10.675Z,101237.31
2023-01-26T09:38:38.826Z,101238.13
2023-01-26T09:41:11.159Z,101247.00
2023-01-26T09:43:49.912Z,101251.50
2023-01-26T09:46:25.448Z,101256.78
2023-01-26T09:49:07.213Z,101247.81
2023-01-26T09:51:38.702Z,101247.63
2023-01-26T09:54:26.557Z,101254.75
2023-01-26T09:56:55.844Z,101252.06
2023-01-26T09:59:39.782Z,101254.84
2023-01-26T10:02:31.300Z,101244.88
2023-01-26T10:05:04.688Z,101241.09
2023-01-26T10:07:31.762Z,101225.97
2023-01-26T10:09:58.471Z,101234.06
2023-01-26T10:12:36.535Z,101232.94
2023-01-26T10:15:31.108Z,101210.59
2023-01-26T10:18:04.594Z,101210.78
2023-01-26T10:20:55.815Z,101217.72
2023-01-26T10:23:33.916Z,101204.22
2023-01-26T10:26:14.390Z,101212.91
2023-01-26T10:28:44.025Z,101208.28
2023-01-26T10:31:35.178Z,101196.44
2023-01-26T10:34:13.856Z,101199.19
2023-01-26T10:36:43.918Z,101201.56
2023-01-26T10:39:15.433Z,101205.91
2023-01-26T10:42:03.128Z,101220.31
2023-01-26T10:44:35.571Z,101240.13
2023-01-26T10:47:15.915Z,101248.34
2023-01-26T10:49:43.092Z,101255.53
2023-01-26T10:52:22.387Z,101271.41
2023-01-26T10:54:53.887Z,101275.00
2023-01-26T10:57:28.942Z,101263.41
2023-01-26T10:59:58.715Z,101258.13
2023-01-26T11:02:27.926Z,101266.16
2023-01-26T11:05:07.005Z,101265.78
2023-01-26T11:07:39.878Z,101260.41
2023-01-26T11:10:19.171Z,101264.31
2023-01-26T11:12:45.984Z,101249.81
2023-01-26T11:15:23.879Z,101251.44
2023-01-26T11:18:00.978Z,101256.47
2023-01-26T11:20:27.776Z,101237.22
2023-01-26T11:23:04.377Z,101235.91
2023-01-26T11:26:00.135Z,101232.22
2023-01-26T11:28:42.189Z,101221.88
2023-01-26T11:31:22.695Z,101230.94
2023-01-26T11:34:10.612Z,101227.34
2023-01-26T11:36:43.348Z,101230.72
2023-01-26T11:39:41.000Z,101236.72
2023-01-26T11:42:23.569Z,101240.34
2023-01-26T11:45:21.841Z,101234.78
2023-01-26T11:47:54.898Z,101237.19
2023-01-26T11:51:00.005Z,101224.66
2023-01-26T11:53:38.731Z,101219.28
2023-01-26T11:56:27.059Z,101206.63
2023-01-26T11:59:02.490Z,101204.47
2023-01-26T12:01:56.240Z,101197.16
2023-01-26T12:04:23.634Z,101196.00
2023-01-26T12:07:00.255Z,101195.88
2023-01-26T12:09:43.536Z,101189.47
2023-01-26T12:12:18.043Z,101183.81
2023-01-26T12:14:58.593Z,101172.22
2023-01-26T12:17:53.224Z,101167.34
2023-01-26T12:20:41.204Z,101171.41
2023-01-26T12:23:10.812Z,101167.91
2023-01-26T12:25:39.668Z,101175.69
2023-01-26T12:28:25.295Z,101169.44
2023-01-26T12:31:11.873Z,101160.31
2023-01-26T12:33:39.358Z,101160.25
2023-01-26T12:36:17.019Z,101155.81
2023-01-26T12:38:56.177Z,101146.84
2023-01-26T12:41:39.971Z,101142.44
2023-01-26T12:44:20.412Z,101135.88
2023-01-26T12:46:54.008Z,101141.00
2023-01-26T12:49:28.491Z,101138.41
2023-01-26T12:52:03.378Z,101134.34
2023-01-26T12:54:39.881Z,101137.03
2023-01-26T12:57:12.469Z,101129.09
2023-01-26T12:59:47.673Z,101127.91
2023-01-26T13:02:15.385Z,101116.28
2023-01-26T13:04:44.429Z,101128.59
2023-01-26T13:07:38.568Z,101131.19
2023-01-26T13:10:15.088Z,101125.34
2023-01-26T13:13:06.491Z,101126.31
2023-01-26T13:15:33.417Z,101120.91
2023-01-26T13:18:04.511Z,101129.81
2023-01-26T13:20:40.217Z,101128.84
2023-01-26T13:23:43.310Z,101126.97
2023-01-26T13:26:22.485Z,101122.06
2023-01-26T13:28:49.616Z,101128.59
2023-01-26T13:31:34.157Z,101136.53
2023-01-26T13:34:06.367Z,101136.41
2023-01-26T13:36:36.797Z,101127.84
2023-01-26T13:39:18.895Z,101132.25
2023-01-26T13:41:48.499Z,101145.06
2023-01-26T13:44:23.665Z,101139.41
2023-01-26T13:46:59.855Z,101143.50
2023-01-26T13:49:37.299Z,101145.94
2023-01-26T13:52:15.632Z,101150.94
2023-01-26T13:54:44.119Z,101148.41
2023-01-26T13:57:11.871Z,101145.44
2023-01-26T13:59:56.457Z,101160.88
2023-01-26T14:02:31.748Z,101149.06
2023-01-26T14:04:59.457Z,101158.19
2023-01-26T14:07:41.856Z,101159.19
2023-01-26T14:10:17.938Z,101164.63
2023-01-26T14:12:48.846Z,101171.47
2023-01-26T14:15:28.756Z,101170.44
2023-01-26T14:18:01.198Z,101179.31
2023-01-26T14:20:30.291Z,101183.06
2023-01-26T14:23:15.202Z,101173.44
2023-01-26T14:25:46.745Z,101178.72
2023-01-26T14:28:15.954Z,101183.06
2023-01-26T14:30:43.703Z,101181.88
2023-01-26T14:33:14.244Z,101180.56
2023-01-26T14:35:42.939Z,101182.56
2023-01-26T14:38:12.548Z,101185.13
2023-01-26T14:40:53.582Z,101189.66
2023-01-26T14:43:21.667Z,101185.88
2023-01-26T14:46:07.954Z,101186.66
2023-01-26T14:48:46.298Z,101181.50
2023-01-26T14:51:25.587Z,101188.72
2023-01-26T14:54:39.440Z,101209.47
2023-01-26T14:57:09.531Z,101208.13
2023-01-26T14:59:40.365Z,101215.63
2023-01-26T15:02:18.161Z,101211.31
2023-01-26T15:04:54.340Z,101220.38
2023-01-26T15:07:35.327Z,101222.06
2023-01-26T15:10:04.578Z,101239.78
2023-01-26T15:12:35.090Z,101241.75
2023-01-26T15:15:03.121Z,101240.69
2023-01-26T15:17:41.262Z,101250.50
2023-01-26T15:20:23.146Z,101253.16
2023-01-26T15:22:52.973Z,101271.00
2023-01-26T15:25:20.618Z,101273.84
2023-01-26T15:28:01.051Z,101272.75
2023-01-26T15:30:31.646Z,101290.06
2023-01-26T15:32:58.975Z,101288.13
2023-01-26T15:35:33.653Z,101305.16
2023-01-26T15:38:11.823Z,101317.91
2023-01-26T15:40:39.277Z,101315.47
2023-01-26T15:43:15.645Z,101309.41
2023-01-26T15:45:50.616Z,101318.63
2023-01-26T15:48:17.751Z,101315.78
2023-01-26T15:50:44.888Z,101327.56
2023-01-26T15:53:14.510Z,101326.75
2023-01-26T15:55:42.153Z,101329.22
2023-01-26T15:58:08.806Z,101335.88
2023-01-26T16:00:37.125Z,101342.06
2023-01-26T16:03:13.987Z,101336.81
2023-01-26T16:05:40.685Z,101341.44
2023-01-26T16:08:07.354Z,101353.84
2023-01-26T16:10:34.016Z,101345.88
2023-01-26T16:13:00.707Z,101360.28
2023-01-26T16:15:42.827Z,101362.75
2023-01-26T16:18:09.987Z,101355.50
2023-01-26T16:20:39.607Z,101367.41
2023-01-26T16:23:21.917Z,101371.94
2023-01-26T16:25:49.917Z,101378.34
2023-01-26T16:28:17.046Z,101378.97
2023-01-26T16:30:45.480Z,101383.63
2023-01-26T16:33:14.460Z,101385.47
2023-01-26T16:35:41.259Z,101386.31
2023-01-26T16:38:14.191Z,101391.69
2023-01-26T16:40:47.600Z,101390.59
2023-01-26T16:43:24.061Z,101393.56
2023-01-26T16:45:52.516Z,101401.41
2023-01-26T16:48:19.989Z,101390.66
2023-01-26T16:50:50.265Z,101399.38
2023-01-26T16:53:22.810Z,101396.34
2023-01-26T16:55:49.620Z,101385.38
2023-01-26T16:58:16.358Z,101398.69
2023-01-26T17:00:43.776Z,101380.91
2023-01-26T17:03:13.091Z,101393.63
2023-01-26T17:05:40.967Z,101393.59
2023-01-26T17:08:08.027Z,101393.72
2023-01-26T17:10:34.831Z,101391.31
2023-01-26T17:13:01.783Z,101391.75
2023-01-26T17:15:29.262Z,101385.53
2023-01-26T17:17:57.056Z,101383.53
2023-01-26T17:20:24.275Z,101380.88
2023-01-26T17:22:51.503Z,101388.13
2023-01-26T17:25:18.820Z,101402.03
2023-01-26T17:27:46.650Z,101405.53
2023-01-26T17:30:13.553Z,101404.53
2023-01-26T17:32:42.320Z,101418.75
2023-01-26T17:35:09.516Z,101427.59
2023-01-26T17:37:39.406Z,101430.19
2023-01-26T17:40:09.021Z,101440.09
2023-01-26T17:42:36.402Z,101455.00
2023-01-26T17:45:04.187Z,101450.47
2023-01-26T17:47:34.652Z,101475.38
2023-01-26T17:50:01.774Z,101482.97
2023-01-26T17:52:28.627Z,101499.00
2023-01-26T17:54:55.288Z,101495.59
2023-01-26T17:57:22.103Z,101509.06
2023-01-26T17:59:48.886Z,101526.44
2023-01-26T18:02:15.638Z,101527.84
2023-01-26T18:04:42.344Z,101528.47
2023-01-26T18:07:09.041Z,101531.47
2023-01-26T18:09:35.701Z,101523.09
2023-01-26T18:12:02.444Z,101523.63
2023-01-26T18:14:30.141Z,101533.63
2023-01-26T18:16:56.814Z,101541.75
2023-01-26T18:19:23.563Z,101552.78
2023-01-26T18:21:51.227Z,101550.81
2023-01-26T18:24:18.205Z,101556.59
2023-01-26T18:26:45.149Z,101560.84
2023-01-26T18:29:12.134Z,101564.09
2023-01-26T18:31:40.852Z,101573.16
2023-01-26T18:34:08.260Z,101652.09
2023-01-26T18:36:35.538Z,101656.56
2023-01-26T18:39:05.558Z,101654.66
2023-01-26T18:41:33.297Z,101658.09
2023-01-26T18:44:03.804Z,101660.59
2023-01-26T18:46:31.301Z,101669.63
2023-01-26T18:49:00.977Z,101665.06
2023-01-26T18:51:30.105Z,101667.50
2023-01-26T18:53:57.810Z,101666.47
2023-01-26T18:56:25.033Z,101665.47
2023-01-26T18:58:53.630Z,101664.91
2023-01-26T19:01:21.304Z,101667.00
2023-01-26T19:03:55.093Z,101664.06
2023-01-26T19:06:24.191Z,101655.97
2023-01-26T19:09:00.699Z,101667.56
2023-01-26T19:11:30.807Z,101673.09
2023-01-26T19:13:58.057Z,101675.66
2023-01-26T19:16:24.995Z,101691.66
2023-01-26T19:18:52.036Z,101691.09
2023-01-26T19:21:21.810Z,101710.75
2023-01-26T19:23:49.089Z,101720.13
2023-01-26T19:26:19.348Z,101730.94
2023-01-26T19:28:50.240Z,101716.13
2023-01-26T19:31:19.484Z,101709.94
2023-01-26T19:33:51.561Z,101733.09
2023-01-26T19:36:19.055Z,101742.94
2023-01-26T19:38:46.093Z,101757.81
2023-01-26T19:41:12.932Z,101751.44
2023-01-26T19:43:39.734Z,101752.06
2023-01-26T19:46:08.692Z,101770.63
2023-01-26T19:48:35.461Z,101775.16
2023-01-26T19:51:05.463Z,101778.00
2023-01-26T19:53:34.273Z,101790.25
2023-01-26T19:56:06.874Z,101792.63
2023-01-26T19:58:33.943Z,101805.25
2023-01-26T20:01:02.512Z,101805.63
2023-01-26T20:03:29.568Z,101804.56
2023-01-26T20:05:57.274Z,101820.75
2023-01-26T20:08:25.159Z,101827.09
2023-01-26T20:10:53.316Z,101839.81
2023-01-26T20:13:20.951Z,101849.28
2023-01-26T20:15:47.780Z,101834.88
2023-01-26T20:18:14.458Z,101836.69
2023-01-26T20:20:41.185Z,101862.38
2023-01-26T20:23:07.909Z,101853.41
2023-01-26T20:25:36.155Z,101851.44
2023-01-26T20:28:03.115Z,101856.94
2023-01-26T20:30:29.787Z,101860.22
2023-01-26T20:32:56.501Z,101870.38
2023-01-26T20:35:23.225Z,101877.09
2023-01-26T20:37:49.913Z,101869.00
2023-01-26T20:40:16.767Z,101870.66
2023-01-26T20:42:43.418Z,101882.38
2023-01-26T20:45:10.877Z,101893.06
2023-01-26T20:47:39.281Z,101886.81
2023-01-26T20:50:07.933Z,101897.59
2023-01-26T20:52:35.420Z,101905.78
2023-01-26T20:55:02.337Z,101908.50
2023-01-26T20:57:29.828Z,101918.97
2023-01-26T20:59:56.544Z,101923.63
2023-01-26T21:02:23.293Z,101922.63
2023-01-26T21:04:50.260Z,101934.50
2023-01-26T21:07:17.126Z,101935.41
2023-01-26T21:09:43.827Z,101951.47
2023-01-26T21:12:10.542Z,101945.41
2023-01-26T21:14:37.216Z,101950.56
2023-01-26T21:17:03.876Z,101965.03
2023-01-26T21:19:30.602Z,101976.88
2023-01-26T21:21:59.224Z,101972.88
2023-01-26T21:24:26.271Z,101986.53
2023-01-26T21:26:53.861Z,101990.91
2023-01-26T21:29:20.662Z,101995.44
2023-01-26T21:31:48.942Z,101998.25
2023-01-26T21:34:15.767Z,102003.59
2023-01-26T21:36:42.451Z,102010.16
2023-01-26T21:39:14.884Z,102007.25
2023-01-26T21:41:56.616Z,102020.81
2023-01-26T21:44:31.587Z,102018.22
2023-01-26T21:47:01.002Z,102014.78
2023-01-26T21:49:28.583Z,102022.88
2023-01-26T21:52:14.982Z,102025.75
2023-01-26T21:54:41.809Z,102029.00
2023-01-26T21:57:29.009Z,102047.13
2023-01-26T21:59:56.156Z,102059.47
2023-01-26T22:02:23.360Z,102061.72
2023-01-26T22:04:50.317Z,102064.97
2023-01-26T22:07:16.977Z,102061.41
2023-01-26T22:09:44.105Z,102071.16
2023-01-26T22:12:10.844Z,102075.00
2023-01-26T22:14:37.671Z,102076.56
2023-01-26T22:17:04.467Z,102093.13
2023-01-26T22:19:31.237Z,102093.75
2023-01-26T22:21:58.223Z,102103.59
2023-01-26T22:24:24.980Z,102108.13
2023-01-26T22:26:51.800Z,102108.94
2023-01-26T22:29:18.522Z,102094.94
2023-01-26T22:31:45.313Z,102109.09
2023-01-26T22:34:12.169Z,102103.97
2023-01-26T22:36:39.725Z,102106.03
2023-01-26T22:39:06.433Z,102113.19
2023-01-26T22:41:34.500Z,102124.69
2023-01-26T22:44:01.479Z,102136.84
2023-01-26T22:46:30.008Z,102137.53
2023-01-26T22:48:58.520Z,102144.94
2023-01-26T22:51:28.257Z,102154.31
2023-01-26T22:53:56.605Z,102167.16
2023-01-26T22:56:23.535Z,102169.84
2023-01-26T22:58:58.403Z,102174.19
2023-01-26T23:01:27.475Z,102189.50
2023-01-26T23:03:55.752Z,102198.53
2023-01-26T23:06:22.899Z,102203.94
2023-01-26T23:08:50.236Z,102202.34
2023-01-26T23:11:25.673Z,102214.28
2023-01-26T23:13:55.010Z,102222.34
2023-01-26T23:16:25.552Z,102225.56
2023-01-26T23:18:54.434Z,102227.31
2023-01-26T23:21:21.710Z,102221.84
2023-01-26T23:23:49.122Z,102228.94
2023-01-26T23:26:16.688Z,102233.03
2023-01-26T23:28:44.577Z,102230.59
2023-01-26T23:31:13.410Z,102218.66
2023-01-26T23:33:40.716Z,102234.22
2023-01-26T23:36:10.454Z,102236.16
2023-01-26T23:38:37.593Z,102244.22
2023-01-26T23:41:05.532Z,102250.31
2023-01-26T23:43:32.694Z,102256.78
2023-01-26T23:45:59.784Z,102259.56
2023-01-26T23:48:27.072Z,102259.28
2023-01-26T23:51:01.264Z,102270.28
2023-01-26T23:53:29.790Z,102277.38
2023-01-26T23:55:58.655Z,102273.75
2023-01-26T23:58:25.654Z,102283.19
